sensor_id;sensor_type;location;lat;lon;timestamp;pressure;altitude;pressure_sealevel;temperature;humidity
73171;BME280;61381;50.118;19.962;2022-08-19T00:03:09;98194.72;;;20.40;81.10
73171;BME280;61381;50.118;19.962;2022-08-19T00:08:10;98195.78;;;20.36;81.16
73171;BME280;61381;50.118;19.962;2022-08-19T00:13:10;98196.41;;;20.29;81.63
73171;BME280;61381;50.118;19.962;2022-08-19T00:18:11;98196.19;;;20.18;82.43
73171;BME280;61381;50.118;19.962;2022-08-19T00:23:11;98193.03;;;20.16;82.29
73171;BME280;61381;50.118;19.962;2022-08-19T00:28:12;98189.91;;;20.14;82.10
73171;BME280;61381;50.118;19.962;2022-08-19T00:33:12;98201.91;;;20.13;82.58
73171;BME280;61381;50.118;19.962;2022-08-19T00:38:19;98193.16;;;20.04;82.88
73171;BME280;61381;50.118;19.962;2022-08-19T00:43:23;98185.34;;;20.02;82.71
73171;BME280;61381;50.118;19.962;2022-08-19T00:48:24;98193.09;;;20.00;82.99
73171;BME280;61381;50.118;19.962;2022-08-19T00:53:27;98191.34;;;19.92;83.32
73171;BME280;61381;50.118;19.962;2022-08-19T00:58:32;98193.97;;;19.88;83.71
73171;BME280;61381;50.118;19.962;2022-08-19T01:03:33;98190.31;;;19.81;83.70
73171;BME280;61381;50.118;19.962;2022-08-19T01:08:34;98185.31;;;19.67;84.62
73171;BME280;61381;50.118;19.962;2022-08-19T01:13:42;98180.41;;;19.56;85.14
73171;BME280;61381;50.118;19.962;2022-08-19T01:18:43;98168.53;;;19.65;84.84
73171;BME280;61381;50.118;19.962;2022-08-19T01:23:44;98165.94;;;19.68;84.50
73171;BME280;61381;50.118;19.962;2022-08-19T01:28:47;98157.50;;;19.73;84.50
73171;BME280;61381;50.118;19.962;2022-08-19T01:33:49;98158.28;;;19.74;84.04
73171;BME280;61381;50.118;19.962;2022-08-19T01:38:57;98150.47;;;19.72;84.34
73171;BME280;61381;50.118;19.962;2022-08-19T01:43:59;98154.34;;;19.71;83.96
73171;BME280;61381;50.118;19.962;2022-08-19T01:49:01;98160.31;;;19.61;84.83
73171;BME280;61381;50.118;19.962;2022-08-19T01:54:02;98160.41;;;19.49;85.64
73171;BME280;61381;50.118;19.962;2022-08-19T01:59:10;98160.22;;;19.41;85.79
73171;BME280;61381;50.118;19.962;2022-08-19T02:04:11;98153.59;;;19.39;85.80
73171;BME280;61381;50.118;19.962;2022-08-19T02:09:12;98152.63;;;19.31;86.34
73171;BME280;61381;50.118;19.962;2022-08-19T02:14:13;98154.09;;;19.29;86.31
73171;BME280;61381;50.118;19.962;2022-08-19T02:19:13;98152.38;;;19.20;86.90
73171;BME280;61381;50.118;19.962;2022-08-19T02:24:14;98133.78;;;19.22;86.95
73171;BME280;61381;50.118;19.962;2022-08-19T02:29:14;98133.34;;;19.20;86.69
73171;BME280;61381;50.118;19.962;2022-08-19T02:34:15;98140.25;;;19.18;86.82
73171;BME280;61381;50.118;19.962;2022-08-19T02:39:23;98135.34;;;19.07;87.53
73171;BME280;61381;50.118;19.962;2022-08-19T02:44:23;98146.00;;;19.00;88.03
73171;BME280;61381;50.118;19.962;2022-08-19T02:49:24;98143.13;;;18.93;88.30
73171;BME280;61381;50.118;19.962;2022-08-19T02:54:25;98140.47;;;18.81;88.81
73171;BME280;61381;50.118;19.962;2022-08-19T02:59:25;98139.38;;;18.69;89.74
73171;BME280;61381;50.118;19.962;2022-08-19T03:04:26;98157.28;;;18.58;90.15
73171;BME280;61381;50.118;19.962;2022-08-19T03:09:26;98169.44;;;18.48;90.71
73171;BME280;61381;50.118;19.962;2022-08-19T03:14:30;98165.66;;;18.25;92.09
73171;BME280;61381;50.118;19.962;2022-08-19T03:19:31;98163.97;;;18.20;92.65
73171;BME280;61381;50.118;19.962;2022-08-19T03:24:32;98164.31;;;18.18;92.84
73171;BME280;61381;50.118;19.962;2022-08-19T03:29:36;98165.13;;;18.07;93.36
73171;BME280;61381;50.118;19.962;2022-08-19T03:34:44;98162.00;;;18.33;92.34
73171;BME280;61381;50.118;19.962;2022-08-19T03:39:51;98164.44;;;18.50;91.41
73171;BME280;61381;50.118;19.962;2022-08-19T03:44:52;98161.03;;;18.53;90.89
73171;BME280;61381;50.118;19.962;2022-08-19T03:49:52;98164.75;;;18.61;90.58
73171;BME280;61381;50.118;19.962;2022-08-19T03:54:53;98174.56;;;18.66;90.23
73171;BME280;61381;50.118;19.962;2022-08-19T03:59:53;98175.88;;;18.72;89.96
73171;BME280;61381;50.118;19.962;2022-08-19T04:05:01;98169.41;;;18.77;89.78
73171;BME280;61381;50.118;19.962;2022-08-19T04:10:03;98157.66;;;18.85;89.58
73171;BME280;61381;50.118;19.962;2022-08-19T04:15:05;98160.81;;;18.87;88.99
73171;BME280;61381;50.118;19.962;2022-08-19T04:20:06;98153.31;;;18.96;88.51
73171;BME280;61381;50.118;19.962;2022-08-19T04:25:07;98162.06;;;19.05;87.94
73171;BME280;61381;50.118;19.962;2022-08-19T04:30:14;98168.19;;;19.18;87.09
73171;BME280;61381;50.118;19.962;2022-08-19T04:35:15;98157.00;;;19.36;86.35
73171;BME280;61381;50.118;19.962;2022-08-19T04:45:53;98183.22;;;20.66;80.99
73171;BME280;61381;50.118;19.962;2022-08-19T04:51:00;98199.13;;;21.73;75.21
73171;BME280;61381;50.118;19.962;2022-08-19T04:56:06;98200.78;;;23.37;69.18
73171;BME280;61381;50.118;19.962;2022-08-19T05:01:07;98215.34;;;24.63;64.05
73171;BME280;61381;50.118;19.962;2022-08-19T05:06:11;98228.50;;;25.85;59.78
73171;BME280;61381;50.118;19.962;2022-08-19T05:11:16;98223.81;;;25.74;59.09
73171;BME280;61381;50.118;19.962;2022-08-19T05:16:19;98221.84;;;25.50;59.58
73171;BME280;61381;50.118;19.962;2022-08-19T05:21:21;98223.47;;;24.48;63.19
73171;BME280;61381;50.118;19.962;2022-08-19T05:26:22;98230.59;;;23.97;65.57
73171;BME280;61381;50.118;19.962;2022-08-19T05:31:23;98218.69;;;24.34;64.74
73171;BME280;61381;50.118;19.962;2022-08-19T05:36:25;98231.38;;;23.94;65.71
73171;BME280;61381;50.118;19.962;2022-08-19T05:41:33;98224.50;;;25.14;61.78
73171;BME280;61381;50.118;19.962;2022-08-19T05:46:34;98218.63;;;25.08;62.17
73171;BME280;61381;50.118;19.962;2022-08-19T05:51:36;98217.34;;;24.69;63.13
73171;BME280;61381;50.118;19.962;2022-08-19T05:56:37;98221.44;;;25.69;59.82
73171;BME280;61381;50.118;19.962;2022-08-19T06:01:42;98226.94;;;25.44;60.33
73171;BME280;61381;50.118;19.962;2022-08-19T06:06:44;98219.88;;;25.72;59.82
73171;BME280;61381;50.118;19.962;2022-08-19T06:11:53;98205.97;;;24.71;63.22
73171;BME280;61381;50.118;19.962;2022-08-19T06:16:56;98209.56;;;24.09;66.64
73171;BME280;61381;50.118;19.962;2022-08-19T06:21:59;98217.69;;;23.94;67.63
73171;BME280;61381;50.118;19.962;2022-08-19T06:27:06;98226.84;;;24.20;66.76
73171;BME280;61381;50.118;19.962;2022-08-19T06:32:07;98235.00;;;24.13;67.13
73171;BME280;61381;50.118;19.962;2022-08-19T06:37:07;98229.22;;;25.27;63.15
73171;BME280;61381;50.118;19.962;2022-08-19T06:42:09;98228.50;;;25.92;60.71
73171;BME280;61381;50.118;19.962;2022-08-19T06:47:13;98235.91;;;26.31;59.68
73171;BME280;61381;50.118;19.962;2022-08-19T06:52:21;98240.53;;;28.38;53.78
73171;BME280;61381;50.118;19.962;2022-08-19T06:57:23;98244.34;;;28.10;53.75
73171;BME280;61381;50.118;19.962;2022-08-19T07:02:24;98244.53;;;28.68;51.90
73171;BME280;61381;50.118;19.962;2022-08-19T07:07:24;98260.31;;;27.81;53.92
73171;BME280;61381;50.118;19.962;2022-08-19T07:12:29;98260.88;;;28.48;53.53
73171;BME280;61381;50.118;19.962;2022-08-19T07:17:30;98262.56;;;30.76;46.95
73171;BME280;61381;50.118;19.962;2022-08-19T07:22:31;98248.19;;;30.65;45.75
73171;BME280;61381;50.118;19.962;2022-08-19T07:27:31;98249.66;;;30.06;48.02
73171;BME280;61381;50.118;19.962;2022-08-19T07:32:39;98252.88;;;31.25;46.59
73171;BME280;61381;50.118;19.962;2022-08-19T07:37:40;98249.88;;;32.18;44.29
73171;BME280;61381;50.118;19.962;2022-08-19T07:42:41;98256.19;;;31.53;43.59
73171;BME280;61381;50.118;19.962;2022-08-19T07:47:42;98253.97;;;32.13;41.66
73171;BME280;61381;50.118;19.962;2022-08-19T07:52:42;98261.69;;;32.64;40.74
73171;BME280;61381;50.118;19.962;2022-08-19T07:57:43;98272.09;;;30.32;46.32
73171;BME280;61381;50.118;19.962;2022-08-19T08:02:43;98282.50;;;30.48;45.99
73171;BME280;61381;50.118;19.962;2022-08-19T08:07:44;98274.84;;;30.32;47.29
73171;BME280;61381;50.118;19.962;2022-08-19T08:12:52;98275.03;;;31.25;45.52
73171;BME280;61381;50.118;19.962;2022-08-19T08:17:52;98287.38;;;32.52;41.59
73171;BME280;61381;50.118;19.962;2022-08-19T08:22:54;98291.59;;;32.44;40.77
73171;BME280;61381;50.118;19.962;2022-08-19T08:27:54;98283.94;;;31.86;42.06
73171;BME280;61381;50.118;19.962;2022-08-19T08:32:55;98286.84;;;31.62;43.05
73171;BME280;61381;50.118;19.962;2022-08-19T08:37:56;98288.72;;;30.72;45.08
73171;BME280;61381;50.118;19.962;2022-08-19T08:49:03;98285.72;;;31.06;44.26
73171;BME280;61381;50.118;19.962;2022-08-19T08:54:08;98280.56;;;31.78;42.67
73171;BME280;61381;50.118;19.962;2022-08-19T08:59:25;98276.63;;;31.06;43.98
73171;BME280;61381;50.118;19.962;2022-08-19T09:04:27;98280.84;;;32.29;41.36
73171;BME280;61381;50.118;19.962;2022-08-19T09:09:39;98277.94;;;33.85;37.79
73171;BME280;61381;50.118;19.962;2022-08-19T09:14:48;98269.16;;;33.35;37.34
73171;BME280;61381;50.118;19.962;2022-08-19T09:25:04;98261.47;;;33.78;37.35
73171;BME280;61381;50.118;19.962;2022-08-19T09:30:06;98263.06;;;34.14;37.61
73171;BME280;61381;50.118;19.962;2022-08-19T09:35:08;98255.28;;;33.22;37.11
73171;BME280;61381;50.118;19.962;2022-08-19T09:40:10;98243.06;;;33.33;37.56
73171;BME280;61381;50.118;19.962;2022-08-19T09:45:11;98252.03;;;33.37;39.21
73171;BME280;61381;50.118;19.962;2022-08-19T09:50:12;98243.72;;;33.75;37.84
73171;BME280;61381;50.118;19.962;2022-08-19T09:55:12;98239.94;;;32.63;39.10
73171;BME280;61381;50.118;19.962;2022-08-19T10:00:13;98237.75;;;32.70;40.38
73171;BME280;61381;50.118;19.962;2022-08-19T10:05:14;98232.97;;;32.71;40.79
73171;BME280;61381;50.118;19.962;2022-08-19T10:10:15;98227.88;;;32.40;39.03
73171;BME280;61381;50.118;19.962;2022-08-19T10:15:16;98228.47;;;32.90;38.75
73171;BME280;61381;50.118;19.962;2022-08-19T10:20:16;98226.47;;;33.55;36.23
73171;BME280;61381;50.118;19.962;2022-08-19T10:25:24;98228.75;;;34.30;35.92
73171;BME280;61381;50.118;19.962;2022-08-19T10:30:32;98220.69;;;34.45;34.81
73171;BME280;61381;50.118;19.962;2022-08-19T10:35:33;98214.84;;;35.06;35.04
73171;BME280;61381;50.118;19.962;2022-08-19T10:40:34;98213.75;;;34.50;35.02
73171;BME280;61381;50.118;19.962;2022-08-19T10:45:34;98217.88;;;34.89;34.54
73171;BME280;61381;50.118;19.962;2022-08-19T10:50:36;98226.91;;;34.49;33.47
73171;BME280;61381;50.118;19.962;2022-08-19T10:55:37;98227.00;;;34.23;35.63
73171;BME280;61381;50.118;19.962;2022-08-19T11:00:37;98218.25;;;33.64;35.80
73171;BME280;61381;50.118;19.962;2022-08-19T11:05:38;98226.41;;;33.93;36.82
73171;BME280;61381;50.118;19.962;2022-08-19T11:10:41;98219.78;;;34.26;36.66
73171;BME280;61381;50.118;19.962;2022-08-19T11:15:42;98216.59;;;34.59;33.88
73171;BME280;61381;50.118;19.962;2022-08-19T11:20:43;98195.59;;;35.30;34.54
73171;BME280;61381;50.118;19.962;2022-08-19T11:25:43;98197.50;;;35.51;32.55
73171;BME280;61381;50.118;19.962;2022-08-19T11:30:51;98193.22;;;35.60;32.83
73171;BME280;61381;50.118;19.962;2022-08-19T11:35:52;98190.16;;;36.04;33.26
73171;BME280;61381;50.118;19.962;2022-08-19T11:41:00;98192.06;;;35.39;33.75
73171;BME280;61381;50.118;19.962;2022-08-19T11:46:08;98184.59;;;34.63;35.04
73171;BME280;61381;50.118;19.962;2022-08-19T11:51:15;98167.91;;;35.35;34.62
73171;BME280;61381;50.118;19.962;2022-08-19T11:56:17;98173.91;;;35.93;32.60
73171;BME280;61381;50.118;19.962;2022-08-19T12:01:21;98182.88;;;36.06;32.10
73171;BME280;61381;50.118;19.962;2022-08-19T12:06:24;98185.66;;;35.19;33.24
73171;BME280;61381;50.118;19.962;2022-08-19T12:11:26;98183.63;;;35.11;33.27
73171;BME280;61381;50.118;19.962;2022-08-19T12:16:33;98190.50;;;35.28;34.62
73171;BME280;61381;50.118;19.962;2022-08-19T12:21:35;98177.88;;;35.74;33.02
73171;BME280;61381;50.118;19.962;2022-08-19T12:26:35;98185.66;;;36.16;31.49
73171;BME280;61381;50.118;19.962;2022-08-19T12:31:36;98175.88;;;35.74;31.33
73171;BME280;61381;50.118;19.962;2022-08-19T12:36:36;98183.50;;;36.01;30.66
73171;BME280;61381;50.118;19.962;2022-08-19T12:41:37;98182.81;;;35.51;32.26
73171;BME280;61381;50.118;19.962;2022-08-19T12:46:38;98175.16;;;34.83;32.57
73171;BME280;61381;50.118;19.962;2022-08-19T12:51:38;98174.25;;;35.27;33.00
73171;BME280;61381;50.118;19.962;2022-08-19T12:56:39;98172.63;;;34.44;33.65
73171;BME280;61381;50.118;19.962;2022-08-19T13:01:39;98165.59;;;34.62;32.87
73171;BME280;61381;50.118;19.962;2022-08-19T13:06:40;98167.00;;;34.66;31.95
73171;BME280;61381;50.118;19.962;2022-08-19T13:11:41;98159.22;;;35.24;29.38
73171;BME280;61381;50.118;19.962;2022-08-19T13:16:48;98162.72;;;35.56;31.92
73171;BME280;61381;50.118;19.962;2022-08-19T13:21:50;98155.88;;;34.98;31.66
73171;BME280;61381;50.118;19.962;2022-08-19T13:26:51;98162.25;;;34.45;32.62
73171;BME280;61381;50.118;19.962;2022-08-19T13:31:51;98149.69;;;34.18;32.70
73171;BME280;61381;50.118;19.962;2022-08-19T13:36:52;98157.84;;;34.35;33.44
73171;BME280;61381;50.118;19.962;2022-08-19T13:41:53;98150.88;;;34.30;34.61
73171;BME280;61381;50.118;19.962;2022-08-19T13:46:54;98146.91;;;34.72;32.34
73171;BME280;61381;50.118;19.962;2022-08-19T13:51:56;98134.44;;;35.17;31.54
73171;BME280;61381;50.118;19.962;2022-08-19T13:56:56;98140.44;;;34.75;30.95
73171;BME280;61381;50.118;19.962;2022-08-19T14:01:58;98130.94;;;34.94;31.86
73171;BME280;61381;50.118;19.962;2022-08-19T14:06:59;98124.66;;;35.12;31.77
73171;BME280;61381;50.118;19.962;2022-08-19T14:11:59;98125.31;;;35.26;31.10
73171;BME280;61381;50.118;19.962;2022-08-19T14:17:07;98126.06;;;34.23;33.41
73171;BME280;61381;50.118;19.962;2022-08-19T14:22:08;98121.69;;;33.90;34.47
73171;BME280;61381;50.118;19.962;2022-08-19T14:27:09;98118.38;;;34.49;32.21
73171;BME280;61381;50.118;19.962;2022-08-19T14:32:09;98095.66;;;34.82;31.43
73171;BME280;61381;50.118;19.962;2022-08-19T14:37:10;98106.41;;;34.39;32.53
73171;BME280;61381;50.118;19.962;2022-08-19T14:42:11;98103.97;;;34.41;30.26
73171;BME280;61381;50.118;19.962;2022-08-19T14:47:12;98114.53;;;34.24;31.59
73171;BME280;61381;50.118;19.962;2022-08-19T14:52:12;98107.03;;;34.34;31.92
73171;BME280;61381;50.118;19.962;2022-08-19T14:57:14;98120.88;;;34.56;31.37
73171;BME280;61381;50.118;19.962;2022-08-19T15:02:15;98115.41;;;34.43;31.62
73171;BME280;61381;50.118;19.962;2022-08-19T15:07:16;98108.13;;;33.92;31.71
73171;BME280;61381;50.118;19.962;2022-08-19T15:12:17;98101.91;;;33.88;32.84
73171;BME280;61381;50.118;19.962;2022-08-19T15:17:23;98090.09;;;33.27;34.60
73171;BME280;61381;50.118;19.962;2022-08-19T15:22:24;98072.25;;;32.89;35.46
73171;BME280;61381;50.118;19.962;2022-08-19T15:27:25;98070.16;;;32.81;36.00
73171;BME280;61381;50.118;19.962;2022-08-19T15:32:25;98065.50;;;32.65;37.26
73171;BME280;61381;50.118;19.962;2022-08-19T15:37:26;98067.81;;;32.53;38.21
73171;BME280;61381;50.118;19.962;2022-08-19T15:42:26;98069.91;;;32.36;39.33
73171;BME280;61381;50.118;19.962;2022-08-19T15:47:31;98070.44;;;32.18;39.63
73171;BME280;61381;50.118;19.962;2022-08-19T15:52:32;98064.25;;;32.40;39.96
73171;BME280;61381;50.118;19.962;2022-08-19T15:57:32;98042.75;;;32.31;39.54
73171;BME280;61381;50.118;19.962;2022-08-19T16:02:33;98053.84;;;32.31;39.54
73171;BME280;61381;50.118;19.962;2022-08-19T16:07:34;98050.88;;;31.96;40.58
73171;BME280;61381;50.118;19.962;2022-08-19T16:12:34;98053.91;;;31.73;40.77
73171;BME280;61381;50.118;19.962;2022-08-19T16:17:42;98064.03;;;31.92;40.86
73171;BME280;61381;50.118;19.962;2022-08-19T16:22:43;98065.41;;;31.71;41.39
73171;BME280;61381;50.118;19.962;2022-08-19T16:27:43;98087.94;;;31.73;40.74
73171;BME280;61381;50.118;19.962;2022-08-19T16:32:44;98080.28;;;31.32;41.60
73171;BME280;61381;50.118;19.962;2022-08-19T16:37:44;98082.22;;;31.02;43.37
73171;BME280;61381;50.118;19.962;2022-08-19T16:42:52;98080.53;;;30.71;44.33
73171;BME280;61381;50.118;19.962;2022-08-19T16:47:53;98082.41;;;30.58;45.00
73171;BME280;61381;50.118;19.962;2022-08-19T16:52:53;98084.97;;;30.29;45.42
73171;BME280;61381;50.118;19.962;2022-08-19T16:57:54;98096.34;;;30.14;44.80
73171;BME280;61381;50.118;19.962;2022-08-19T17:02:54;98101.47;;;29.96;45.71
73171;BME280;61381;50.118;19.962;2022-08-19T17:07:55;98111.66;;;29.75;45.46
73171;BME280;61381;50.118;19.962;2022-08-19T17:12:56;98102.09;;;29.60;46.61
73171;BME280;61381;50.118;19.962;2022-08-19T17:18:01;98089.16;;;29.33;47.22
73171;BME280;61381;50.118;19.962;2022-08-19T17:23:03;98097.25;;;29.20;47.27
73171;BME280;61381;50.118;19.962;2022-08-19T17:28:16;98079.09;;;28.95;48.10
73171;BME280;61381;50.118;19.962;2022-08-19T17:33:24;98096.34;;;28.76;48.37
73171;BME280;61381;50.118;19.962;2022-08-19T17:38:25;98100.03;;;28.66;48.68
73171;BME280;61381;50.118;19.962;2022-08-19T17:43:26;98104.94;;;28.51;49.60
73171;BME280;61381;50.118;19.962;2022-08-19T17:48:27;98100.94;;;28.24;50.59
73171;BME280;61381;50.118;19.962;2022-08-19T17:53:28;98112.22;;;28.03;50.75
73171;BME280;61381;50.118;19.962;2022-08-19T17:58:28;98111.63;;;27.84;52.10
73171;BME280;61381;50.118;19.962;2022-08-19T18:03:29;98119.50;;;27.82;51.83
73171;BME280;61381;50.118;19.962;2022-08-19T18:08:30;98122.25;;;27.82;52.31
73171;BME280;61381;50.118;19.962;2022-08-19T18:13:31;98127.91;;;27.68;52.78
73171;BME280;61381;50.118;19.962;2022-08-19T18:18:32;98144.84;;;27.66;52.72
73171;BME280;61381;50.118;19.962;2022-08-19T18:23:33;98148.41;;;27.59;52.66
73171;BME280;61381;50.118;19.962;2022-08-19T18:28:34;98152.13;;;27.42;53.17
73171;BME280;61381;50.118;19.962;2022-08-19T18:33:34;98156.53;;;27.32;53.74
73171;BME280;61381;50.118;19.962;2022-08-19T18:38:35;98152.63;;;27.26;53.95
73171;BME280;61381;50.118;19.962;2022-08-19T18:43:36;98151.50;;;27.16;54.05
73171;BME280;61381;50.118;19.962;2022-08-19T18:48:37;98144.50;;;27.08;54.11
73171;BME280;61381;50.118;19.962;2022-08-19T18:53:39;98149.25;;;26.97;54.99
73171;BME280;61381;50.118;19.962;2022-08-19T18:58:41;98196.81;;;26.94;54.87
73171;BME280;61381;50.118;19.962;2022-08-19T19:03:50;98229.16;;;26.68;56.99
73171;BME280;61381;50.118;19.962;2022-08-19T19:08:52;98238.88;;;26.87;56.46
73171;BME280;61381;50.118;19.962;2022-08-19T19:13:53;98274.19;;;26.92;55.93
73171;BME280;61381;50.118;19.962;2022-08-19T19:18:54;98281.03;;;26.33;59.57
73171;BME280;61381;50.118;19.962;2022-08-19T19:23:55;98292.81;;;25.76;62.36
73171;BME280;61381;50.118;19.962;2022-08-19T19:28:55;98309.97;;;25.37;64.44
73171;BME280;61381;50.118;19.962;2022-08-19T19:33:56;98296.94;;;25.05;65.46
73171;BME280;61381;50.118;19.962;2022-08-19T19:38:57;98292.97;;;24.92;65.91
73171;BME280;61381;50.118;19.962;2022-08-19T19:43:58;98292.50;;;24.75;67.16
73171;BME280;61381;50.118;19.962;2022-08-19T19:48:59;98279.97;;;24.74;66.82
73171;BME280;61381;50.118;19.962;2022-08-19T19:54:00;98282.25;;;24.58;67.48
73171;BME280;61381;50.118;19.962;2022-08-19T19:59:01;98279.00;;;24.45;67.33
73171;BME280;61381;50.118;19.962;2022-08-19T20:04:01;98262.88;;;24.29;67.78
73171;BME280;61381;50.118;19.962;2022-08-19T20:09:02;98283.19;;;24.25;68.91
73171;BME280;61381;50.118;19.962;2022-08-19T20:14:06;98273.19;;;23.95;69.91
73171;BME280;61381;50.118;19.962;2022-08-19T20:19:09;98272.69;;;23.82;70.52
73171;BME280;61381;50.118;19.962;2022-08-19T20:24:16;98271.31;;;23.61;71.75
73171;BME280;61381;50.118;19.962;2022-08-19T20:29:19;98286.75;;;23.43;72.92
73171;BME280;61381;50.118;19.962;2022-08-19T20:34:20;98294.34;;;23.19;75.12
73171;BME280;61381;50.118;19.962;2022-08-19T20:39:21;98296.34;;;22.95;77.26
73171;BME280;61381;50.118;19.962;2022-08-19T20:44:21;98298.09;;;22.77;78.67
73171;BME280;61381;50.118;19.962;2022-08-19T20:49:22;98289.59;;;22.55;79.80
73171;BME280;61381;50.118;19.962;2022-08-19T20:54:23;98306.28;;;22.47;80.51
73171;BME280;61381;50.118;19.962;2022-08-19T20:59:24;98312.41;;;22.40;80.50
73171;BME280;61381;50.118;19.962;2022-08-19T21:04:25;98306.06;;;22.32;80.55
73171;BME280;61381;50.118;19.962;2022-08-19T21:09:25;98299.91;;;22.16;81.08
73171;BME280;61381;50.118;19.962;2022-08-19T21:14:26;98290.06;;;22.07;81.42
73171;BME280;61381;50.118;19.962;2022-08-19T21:19:27;98292.94;;;21.91;81.87
73171;BME280;61381;50.118;19.962;2022-08-19T21:24:27;98300.88;;;21.77;83.40
73171;BME280;61381;50.118;19.962;2022-08-19T21:29:28;98286.91;;;21.59;84.39
73171;BME280;61381;50.118;19.962;2022-08-19T21:34:29;98290.31;;;21.52;85.33
73171;BME280;61381;50.118;19.962;2022-08-19T21:39:30;98300.28;;;21.45;85.44
73171;BME280;61381;50.118;19.962;2022-08-19T21:44:30;98295.47;;;21.38;86.11
73171;BME280;61381;50.118;19.962;2022-08-19T21:49:31;98289.88;;;21.31;86.48
73171;BME280;61381;50.118;19.962;2022-08-19T21:54:32;98299.09;;;21.23;86.94
73171;BME280;61381;50.118;19.962;2022-08-19T21:59:33;98293.91;;;21.17;87.85
73171;BME280;61381;50.118;19.962;2022-08-19T22:04:34;98290.13;;;21.02;88.69
73171;BME280;61381;50.118;19.962;2022-08-19T22:09:36;98285.03;;;21.01;89.75
73171;BME280;61381;50.118;19.962;2022-08-19T22:14:38;98292.72;;;20.95;90.71
73171;BME280;61381;50.118;19.962;2022-08-19T22:19:38;98303.81;;;20.87;91.85
73171;BME280;61381;50.118;19.962;2022-08-19T22:24:39;98300.22;;;20.82;92.23
73171;BME280;61381;50.118;19.962;2022-08-19T22:29:40;98310.09;;;20.71;93.28
73171;BME280;61381;50.118;19.962;2022-08-19T22:34:40;98320.69;;;20.76;93.55
73171;BME280;61381;50.118;19.962;2022-08-19T22:39:41;98321.34;;;20.70;93.90
73171;BME280;61381;50.118;19.962;2022-08-19T22:44:41;98318.19;;;20.67;93.96
73171;BME280;61381;50.118;19.962;2022-08-19T22:49:43;98316.06;;;20.61;93.78
73171;BME280;61381;50.118;19.962;2022-08-19T22:54:49;98309.59;;;20.65;93.12
73171;BME280;61381;50.118;19.962;2022-08-19T22:59:52;98314.06;;;20.58;93.16
73171;BME280;61381;50.118;19.962;2022-08-19T23:04:52;98310.72;;;20.64;92.52
73171;BME280;61381;50.118;19.962;2022-08-19T23:09:53;98318.78;;;20.61;92.30
73171;BME280;61381;50.118;19.962;2022-08-19T23:14:53;98313.78;;;20.63;92.54
73171;BME280;61381;50.118;19.962;2022-08-19T23:19:54;98296.88;;;20.54;93.02
73171;BME280;61381;50.118;19.962;2022-08-19T23:25:00;98301.44;;;20.49;93.07
73171;BME280;61381;50.118;19.962;2022-08-19T23:30:01;98293.91;;;20.43;93.20
73171;BME280;61381;50.118;19.962;2022-08-19T23:35:03;98299.63;;;20.38;93.50
73171;BME280;61381;50.118;19.962;2022-08-19T23:40:05;98290.78;;;20.25;94.10
73171;BME280;61381;50.118;19.962;2022-08-19T23:45:07;98305.25;;;20.29;93.63
73171;BME280;61381;50.118;19.962;2022-08-19T23:50:08;98317.97;;;20.41;93.76
73171;BME280;61381;50.118;19.962;2022-08-19T23:55:09;98309.69;;;20.53;93.14
